Woensdrecht, Nederland

1:44 AM CEST op 01 september 2015 (GMT +0200)
Netherlands Noord Brabant | | Change Station
CLOSE
Current Station
Persoonlijk weerstation
Location: Bergen Op Zoom, NORTH BRABANT
Geometrische hoogte: 10 ft
Nabije weerstations

Hoogte 10 ft 51.48 °N, 4.28 °E | Updated 3 minutes ago

Mostly Cloudy
Merendeels bewolkt
63.3 °F
Voelt als 63.3 °F
N
3.7
Wind Variabel Wind van NW
Gusts 11.0 mijl/u

Vandaag
Hoog -- | Laag -- °F
--% Kans op neerslag
Gisteren
Hoog -- | Laag -- °F
Precip. -- inches
6:54 AM 8:29 PM
Afnemende maan, 93% visible
Druk 29.83 inches
Zicht 6.2 mijlen
Wolken Gering 900 ft
Merendeels bewolkt 1900 ft
Merendeels bewolkt 2300 ft
Dauwpunt 60 °F
Vochtigheid 89%
Neerslag 0.00 inches
Dikte sneeuw Niet beschikbaar.
UV 0 van de 12
Pollen Niet beschikbaar.
Luchtkwaliteit Niet beschikbaar.
Flu Activity Niet beschikbaar.
SPECI EHGR 312337Z AUTO 26006KT 9999 FEW009 BKN019 BKN023 17/16 Q1010 WHT
Druk 29.83 inches
Zicht 6.2 mijlen
Wolken Gering 900 ft
Merendeels bewolkt 1900 ft
Merendeels bewolkt 2300 ft
Dauwpunt 60 °F
Vochtigheid 89%
Neerslag 0.00 inches
Dikte sneeuw Niet beschikbaar.
UV 0 van de 12
Pollen Niet beschikbaar.
Luchtkwaliteit Niet beschikbaar.
Flu Activity Niet beschikbaar.
SPECI EHGR 312337Z AUTO 26006KT 9999 FEW009 BKN019 BKN023 17/16 Q1010 WHT

10-Day Weather Forecast

×

Almanac

Astronomie

Sep. 01, 2015 Opkomst Ondergang
Werkelijke tijd
Burgerlijke schemering
Nautische schemering
Astronomische schemering
Maan
Golflengte van het zichtbare licht
Daglengte
Tomorrow will be .
, % of the Moon is Illuminated

Extremen vandaag

Country Highs Country Lows

Community

WunderPhotos

Upload Photos

1,851,395 foto’s ge-upload!

WunderBlogs® & News

Nearby

Luchtkwaliteit

  Luchtkwaliteit LK-index Verontreinigende stof
Not available.

Dikte sneeuw

Station Depth Geometrische hoogte

Aardbevingen

Stad Distance Mag. Time & Date
Minimum magnitude displayed is 2.5.

Watertemperatuur langs de kust

Plaats Temperatuur

Stations

Nabije weerstations

Locatie station Temp. Gevoelstemperatuur Dauwpunt Vochtigheid Wind Precip. Hoogte Geactualiseerd Type